sensor_id;sensor_type;location;lat;lon;timestamp;pressure;altitude;pressure_sealevel;temperature;humidity
25560;BME280;13450;49.374;8.584;2023-04-06T00:00:51;100826.41;;;1.37;100.00
25560;BME280;13450;49.374;8.584;2023-04-06T00:03:19;100832.66;;;1.36;100.00
25560;BME280;13450;49.374;8.584;2023-04-06T00:05:44;100829.28;;;1.34;100.00
25560;BME280;13450;49.374;8.584;2023-04-06T00:08:10;100824.47;;;1.28;100.00
25560;BME280;13450;49.374;8.584;2023-04-06T00:10:38;100823.25;;;1.21;100.00
25560;BME280;13450;49.374;8.584;2023-04-06T00:13:03;100823.50;;;1.17;100.00
25560;BME280;13450;49.374;8.584;2023-04-06T00:15:28;100816.38;;;1.07;100.00
25560;BME280;13450;49.374;8.584;2023-04-06T00:17:55;100821.88;;;1.03;100.00
25560;BME280;13450;49.374;8.584;2023-04-06T00:20:20;100817.31;;;0.81;100.00
25560;BME280;13450;49.374;8.584;2023-04-06T00:22:45;100817.06;;;0.73;100.00
25560;BME280;13450;49.374;8.584;2023-04-06T00:25:11;100816.53;;;0.68;100.00
25560;BME280;13450;49.374;8.584;2023-04-06T00:27:37;100821.06;;;0.65;100.00
25560;BME280;13450;49.374;8.584;2023-04-06T00:30:04;100819.63;;;0.61;100.00
25560;BME280;13450;49.374;8.584;2023-04-06T00:32:30;100818.91;;;0.59;100.00
25560;BME280;13450;49.374;8.584;2023-04-06T00:34:56;100822.06;;;0.51;100.00
25560;BME280;13450;49.374;8.584;2023-04-06T00:37:21;100822.50;;;0.45;100.00
25560;BME280;13450;49.374;8.584;2023-04-06T00:39:49;100820.09;;;0.42;100.00
25560;BME280;13450;49.374;8.584;2023-04-06T00:42:17;100809.91;;;0.37;100.00
25560;BME280;13450;49.374;8.584;2023-04-06T00:44:57;100812.63;;;0.36;100.00
25560;BME280;13450;49.374;8.584;2023-04-06T00:47:23;100803.06;;;0.35;100.00
25560;BME280;13450;49.374;8.584;2023-04-06T00:49:51;100806.31;;;0.38;100.00
25560;BME280;13450;49.374;8.584;2023-04-06T00:52:20;100796.22;;;0.32;100.00
25560;BME280;13450;49.374;8.584;2023-04-06T00:54:46;100802.09;;;0.36;100.00
25560;BME280;13450;49.374;8.584;2023-04-06T00:57:12;100798.63;;;0.35;100.00
25560;BME280;13450;49.374;8.584;2023-04-06T00:59:38;100791.00;;;0.44;100.00
25560;BME280;13450;49.374;8.584;2023-04-06T01:02:03;100789.22;;;0.44;100.00
25560;BME280;13450;49.374;8.584;2023-04-06T01:04:29;100788.59;;;0.41;100.00
25560;BME280;13450;49.374;8.584;2023-04-06T01:06:56;100792.19;;;0.39;100.00
25560;BME280;13450;49.374;8.584;2023-04-06T01:09:22;100791.75;;;0.46;100.00
25560;BME280;13450;49.374;8.584;2023-04-06T01:11:50;100790.91;;;0.45;100.00
25560;BME280;13450;49.374;8.584;2023-04-06T01:14:15;100784.78;;;0.45;100.00
25560;BME280;13450;49.374;8.584;2023-04-06T01:16:41;100787.56;;;0.43;100.00
25560;BME280;13450;49.374;8.584;2023-04-06T01:19:12;100784.16;;;0.41;100.00
25560;BME280;13450;49.374;8.584;2023-04-06T01:21:39;100779.75;;;0.42;100.00
25560;BME280;13450;49.374;8.584;2023-04-06T01:24:05;100782.38;;;0.42;100.00
25560;BME280;13450;49.374;8.584;2023-04-06T01:26:31;100788.59;;;0.41;100.00
25560;BME280;13450;49.374;8.584;2023-04-06T01:28:59;100776.28;;;0.41;100.00
25560;BME280;13450;49.374;8.584;2023-04-06T01:31:25;100787.16;;;0.36;100.00
25560;BME280;13450;49.374;8.584;2023-04-06T01:33:51;100776.63;;;0.36;100.00
25560;BME280;13450;49.374;8.584;2023-04-06T01:36:17;100768.47;;;0.39;100.00
25560;BME280;13450;49.374;8.584;2023-04-06T01:38:43;100767.53;;;0.41;100.00
25560;BME280;13450;49.374;8.584;2023-04-06T01:41:08;100770.59;;;0.34;100.00
25560;BME280;13450;49.374;8.584;2023-04-06T01:43:37;100768.41;;;0.28;100.00
25560;BME280;13450;49.374;8.584;2023-04-06T01:46:04;100763.38;;;0.25;100.00
25560;BME280;13450;49.374;8.584;2023-04-06T01:48:30;100767.78;;;0.24;100.00
25560;BME280;13450;49.374;8.584;2023-04-06T01:50:55;100771.72;;;0.19;100.00
25560;BME280;13450;49.374;8.584;2023-04-06T01:53:21;100763.41;;;0.12;100.00
25560;BME280;13450;49.374;8.584;2023-04-06T01:55:47;100764.47;;;0.09;100.00
25560;BME280;13450;49.374;8.584;2023-04-06T01:58:12;100764.69;;;0.06;100.00
25560;BME280;13450;49.374;8.584;2023-04-06T02:00:38;100762.03;;;0.06;100.00
25560;BME280;13450;49.374;8.584;2023-04-06T02:03:04;100759.41;;;0.06;100.00
25560;BME280;13450;49.374;8.584;2023-04-06T02:05:30;100767.41;;;0.05;100.00
25560;BME280;13450;49.374;8.584;2023-04-06T02:07:58;100760.78;;;-0.01;100.00
25560;BME280;13450;49.374;8.584;2023-04-06T02:10:23;100762.50;;;0.00;100.00
25560;BME280;13450;49.374;8.584;2023-04-06T02:12:49;100763.66;;;-0.04;100.00
25560;BME280;13450;49.374;8.584;2023-04-06T02:15:15;100766.63;;;-0.22;100.00
25560;BME280;13450;49.374;8.584;2023-04-06T02:17:41;100765.25;;;-0.28;100.00
25560;BME280;13450;49.374;8.584;2023-04-06T02:20:09;100762.91;;;-0.32;100.00
25560;BME280;13450;49.374;8.584;2023-04-06T02:22:37;100756.75;;;-0.31;100.00
25560;BME280;13450;49.374;8.584;2023-04-06T02:28:25;100764.50;;;-0.30;100.00
25560;BME280;13450;49.374;8.584;2023-04-06T02:30:51;100765.56;;;-0.32;100.00
25560;BME280;13450;49.374;8.584;2023-04-06T02:33:16;100761.25;;;-0.33;100.00
25560;BME280;13450;49.374;8.584;2023-04-06T02:35:44;100752.63;;;-0.35;100.00
25560;BME280;13450;49.374;8.584;2023-04-06T02:38:09;100752.94;;;-0.40;100.00
25560;BME280;13450;49.374;8.584;2023-04-06T02:40:39;100754.75;;;-0.41;100.00
25560;BME280;13450;49.374;8.584;2023-04-06T02:43:05;100756.09;;;-0.48;100.00
25560;BME280;13450;49.374;8.584;2023-04-06T02:45:30;100751.03;;;-0.51;100.00
25560;BME280;13450;49.374;8.584;2023-04-06T02:47:55;100748.31;;;-0.62;100.00
25560;BME280;13450;49.374;8.584;2023-04-06T02:50:20;100756.69;;;-0.70;100.00
25560;BME280;13450;49.374;8.584;2023-04-06T02:52:46;100758.91;;;-0.77;100.00
25560;BME280;13450;49.374;8.584;2023-04-06T02:55:11;100755.75;;;-0.82;100.00
25560;BME280;13450;49.374;8.584;2023-04-06T02:57:39;100751.88;;;-0.89;100.00
25560;BME280;13450;49.374;8.584;2023-04-06T03:00:07;100749.84;;;-0.99;100.00
25560;BME280;13450;49.374;8.584;2023-04-06T03:02:35;100748.38;;;-1.03;100.00
25560;BME280;13450;49.374;8.584;2023-04-06T03:05:00;100753.53;;;-1.01;100.00
25560;BME280;13450;49.374;8.584;2023-04-06T03:07:26;100748.47;;;-1.04;100.00
25560;BME280;13450;49.374;8.584;2023-04-06T03:09:55;100748.72;;;-0.95;100.00
25560;BME280;13450;49.374;8.584;2023-04-06T03:12:20;100747.00;;;-0.96;100.00
25560;BME280;13450;49.374;8.584;2023-04-06T03:14:45;100749.94;;;-1.00;100.00
25560;BME280;13450;49.374;8.584;2023-04-06T03:17:11;100748.91;;;-0.98;100.00
25560;BME280;13450;49.374;8.584;2023-04-06T03:19:36;100747.84;;;-0.95;100.00
25560;BME280;13450;49.374;8.584;2023-04-06T03:22:02;100738.19;;;-0.95;100.00
25560;BME280;13450;49.374;8.584;2023-04-06T03:24:27;100742.41;;;-0.92;100.00
25560;BME280;13450;49.374;8.584;2023-04-06T03:26:53;100745.13;;;-0.94;100.00
25560;BME280;13450;49.374;8.584;2023-04-06T03:29:18;100753.09;;;-0.95;100.00
25560;BME280;13450;49.374;8.584;2023-04-06T03:31:43;100747.75;;;-0.94;100.00
25560;BME280;13450;49.374;8.584;2023-04-06T03:34:11;100757.94;;;-0.89;100.00
25560;BME280;13450;49.374;8.584;2023-04-06T03:36:36;100757.94;;;-0.89;100.00
25560;BME280;13450;49.374;8.584;2023-04-06T03:39:03;100755.97;;;-0.85;100.00
25560;BME280;13450;49.374;8.584;2023-04-06T03:41:28;100756.91;;;-0.86;100.00
25560;BME280;13450;49.374;8.584;2023-04-06T03:43:53;100762.91;;;-0.84;100.00
25560;BME280;13450;49.374;8.584;2023-04-06T03:46:18;100758.59;;;-0.85;100.00
25560;BME280;13450;49.374;8.584;2023-04-06T03:48:48;100766.59;;;-0.87;100.00
25560;BME280;13450;49.374;8.584;2023-04-06T03:51:16;100765.53;;;-0.84;100.00
25560;BME280;13450;49.374;8.584;2023-04-06T03:53:42;100772.47;;;-0.83;100.00
25560;BME280;13450;49.374;8.584;2023-04-06T03:56:08;100767.22;;;-0.83;100.00
25560;BME280;13450;49.374;8.584;2023-04-06T03:58:33;100767.22;;;-0.83;100.00
25560;BME280;13450;49.374;8.584;2023-04-06T04:00:58;100769.84;;;-0.83;100.00
25560;BME280;13450;49.374;8.584;2023-04-06T04:03:24;100772.28;;;-0.80;100.00
25560;BME280;13450;49.374;8.584;2023-04-06T04:05:51;100770.69;;;-0.83;100.00
25560;BME280;13450;49.374;8.584;2023-04-06T04:08:17;100772.47;;;-0.83;100.00
25560;BME280;13450;49.374;8.584;2023-04-06T04:10:42;100774.38;;;-0.85;100.00
25560;BME280;13450;49.374;8.584;2023-04-06T04:13:07;100779.72;;;-0.87;100.00
25560;BME280;13450;49.374;8.584;2023-04-06T04:15:33;100779.81;;;-0.88;100.00
25560;BME280;13450;49.374;8.584;2023-04-06T04:17:58;100792.22;;;-0.90;100.00
25560;BME280;13450;49.374;8.584;2023-04-06T04:20:23;100796.00;;;-0.95;100.00
25560;BME280;13450;49.374;8.584;2023-04-06T04:22:49;100793.38;;;-0.95;100.00
25560;BME280;13450;49.374;8.584;2023-04-06T04:25:14;100791.13;;;-1.01;100.00
25560;BME280;13450;49.374;8.584;2023-04-06T04:27:39;100795.13;;;-1.08;100.00
25560;BME280;13450;49.374;8.584;2023-04-06T04:30:07;100789.44;;;-1.15;100.00
25560;BME280;13450;49.374;8.584;2023-04-06T04:32:33;100794.88;;;-1.18;100.00
25560;BME280;13450;49.374;8.584;2023-04-06T04:34:58;100792.34;;;-1.20;100.00
25560;BME280;13450;49.374;8.584;2023-04-06T04:37:23;100789.72;;;-1.20;100.00
25560;BME280;13450;49.374;8.584;2023-04-06T04:39:51;100788.78;;;-1.19;100.00
25560;BME280;13450;49.374;8.584;2023-04-06T04:42:16;100797.50;;;-1.18;100.00
25560;BME280;13450;49.374;8.584;2023-04-06T04:44:41;100791.09;;;-1.14;100.00
25560;BME280;13450;49.374;8.584;2023-04-06T04:47:07;100793.41;;;-1.09;100.00
25560;BME280;13450;49.374;8.584;2023-04-06T04:49:32;100798.47;;;-1.06;100.00
25560;BME280;13450;49.374;8.584;2023-04-06T04:51:57;100800.81;;;-1.01;100.00
25560;BME280;13450;49.374;8.584;2023-04-06T04:54:23;100803.31;;;-1.00;100.00
25560;BME280;13450;49.374;8.584;2023-04-06T04:56:48;100804.81;;;-0.96;100.00
25560;BME280;13450;49.374;8.584;2023-04-06T04:59:13;100801.25;;;-0.95;100.00
25560;BME280;13450;49.374;8.584;2023-04-06T05:01:39;100804.44;;;-0.89;100.00
25560;BME280;13450;49.374;8.584;2023-04-06T05:04:04;100806.63;;;-0.83;100.00
25560;BME280;13450;49.374;8.584;2023-04-06T05:06:30;100808.03;;;-0.77;100.00
25560;BME280;13450;49.374;8.584;2023-04-06T05:08:55;100801.91;;;-0.78;100.00
25560;BME280;13450;49.374;8.584;2023-04-06T05:11:21;100808.66;;;-0.74;100.00
25560;BME280;13450;49.374;8.584;2023-04-06T05:13:46;100800.66;;;-0.72;100.00
25560;BME280;13450;49.374;8.584;2023-04-06T05:16:12;100802.66;;;-0.76;100.00
25560;BME280;13450;49.374;8.584;2023-04-06T05:18:39;100809.06;;;-0.80;100.00
25560;BME280;13450;49.374;8.584;2023-04-06T05:21:05;100819.16;;;-0.87;100.00
25560;BME280;13450;49.374;8.584;2023-04-06T05:23:32;100817.66;;;-0.91;100.00
25560;BME280;13450;49.374;8.584;2023-04-06T05:25:57;100818.91;;;-0.97;100.00
25560;BME280;13450;49.374;8.584;2023-04-06T05:28:23;100820.81;;;-0.99;100.00
25560;BME280;13450;49.374;8.584;2023-04-06T05:30:51;100819.00;;;-0.98;100.00
25560;BME280;13450;49.374;8.584;2023-04-06T05:33:16;100816.59;;;-1.01;100.00
25560;BME280;13450;49.374;8.584;2023-04-06T05:35:41;100821.63;;;-0.98;100.00
25560;BME280;13450;49.374;8.584;2023-04-06T05:38:09;100817.41;;;-1.01;100.00
25560;BME280;13450;49.374;8.584;2023-04-06T05:40:36;100822.66;;;-1.01;100.00
25560;BME280;13450;49.374;8.584;2023-04-06T05:43:03;100825.09;;;-0.98;100.00
25560;BME280;13450;49.374;8.584;2023-04-06T05:45:28;100816.81;;;-0.92;100.00
25560;BME280;13450;49.374;8.584;2023-04-06T05:47:57;100827.47;;;-0.80;100.00
25560;BME280;13450;49.374;8.584;2023-04-06T05:50:22;100817.41;;;-0.73;100.00
25560;BME280;13450;49.374;8.584;2023-04-06T05:52:47;100825.72;;;-0.67;100.00
25560;BME280;13450;49.374;8.584;2023-04-06T05:55:13;100823.41;;;-0.58;100.00
25560;BME280;13450;49.374;8.584;2023-04-06T05:57:38;100825.19;;;-0.46;100.00
25560;BME280;13450;49.374;8.584;2023-04-06T06:00:05;100830.78;;;-0.37;100.00
25560;BME280;13450;49.374;8.584;2023-04-06T06:02:31;100825.56;;;-0.24;100.00
25560;BME280;13450;49.374;8.584;2023-04-06T06:04:57;100825.53;;;-0.11;100.00
25560;BME280;13450;49.374;8.584;2023-04-06T06:07:23;100828.06;;;0.03;100.00
25560;BME280;13450;49.374;8.584;2023-04-06T06:09:49;100832.25;;;0.19;100.00
25560;BME280;13450;49.374;8.584;2023-04-06T06:12:14;100834.00;;;0.31;100.00
25560;BME280;13450;49.374;8.584;2023-04-06T06:14:40;100820.94;;;0.43;100.00
25560;BME280;13450;49.374;8.584;2023-04-06T06:17:05;100816.56;;;0.55;100.00
25560;BME280;13450;49.374;8.584;2023-04-06T06:19:33;100823.50;;;0.69;100.00
25560;BME280;13450;49.374;8.584;2023-04-06T06:22:01;100817.31;;;0.81;100.00
25560;BME280;13450;49.374;8.584;2023-04-06T06:24:28;100826.75;;;0.97;100.00
25560;BME280;13450;49.374;8.584;2023-04-06T06:26:55;100828.50;;;1.09;100.00
25560;BME280;13450;49.374;8.584;2023-04-06T06:29:21;100820.59;;;1.21;100.00
25560;BME280;13450;49.374;8.584;2023-04-06T06:31:48;100826.91;;;1.31;100.00
25560;BME280;13450;49.374;8.584;2023-04-06T06:34:14;100827.75;;;1.43;100.00
25560;BME280;13450;49.374;8.584;2023-04-06T06:36:39;100822.28;;;1.58;100.00
25560;BME280;13450;49.374;8.584;2023-04-06T06:39:05;100829.38;;;1.68;100.00
25560;BME280;13450;49.374;8.584;2023-04-06T06:41:30;100824.00;;;1.81;100.00
25560;BME280;13450;49.374;8.584;2023-04-06T06:43:58;100828.22;;;1.95;100.00
25560;BME280;13450;49.374;8.584;2023-04-06T06:46:23;100834.91;;;2.11;100.00
25560;BME280;13450;49.374;8.584;2023-04-06T06:48:48;100831.31;;;2.24;100.00
25560;BME280;13450;49.374;8.584;2023-04-06T06:51:20;100839.25;;;2.35;100.00
25560;BME280;13450;49.374;8.584;2023-04-06T06:53:47;100831.78;;;2.52;100.00
25560;BME280;13450;49.374;8.584;2023-04-06T06:56:13;100838.72;;;2.64;100.00
25560;BME280;13450;49.374;8.584;2023-04-06T06:58:38;100829.94;;;2.75;100.00
25560;BME280;13450;49.374;8.584;2023-04-06T07:01:03;100830.38;;;2.92;100.00
25560;BME280;13450;49.374;8.584;2023-04-06T07:03:30;100829.34;;;3.04;100.00
25560;BME280;13450;49.374;8.584;2023-04-06T07:05:55;100824.38;;;3.11;100.00
25560;BME280;13450;49.374;8.584;2023-04-06T07:08:24;100827.97;;;3.21;100.00
25560;BME280;13450;49.374;8.584;2023-04-06T07:10:51;100834.16;;;3.32;100.00
25560;BME280;13450;49.374;8.584;2023-04-06T07:13:21;100830.50;;;3.44;100.00
25560;BME280;13450;49.374;8.584;2023-04-06T07:15:51;100821.91;;;3.52;100.00
25560;BME280;13450;49.374;8.584;2023-04-06T07:18:18;100828.94;;;3.63;100.00
25560;BME280;13450;49.374;8.584;2023-04-06T07:20:45;100832.59;;;3.72;100.00
25560;BME280;13450;49.374;8.584;2023-04-06T07:23:11;100831.69;;;3.83;100.00
25560;BME280;13450;49.374;8.584;2023-04-06T07:25:36;100833.56;;;3.92;100.00
25560;BME280;13450;49.374;8.584;2023-04-06T07:28:03;100837.38;;;3.99;100.00
25560;BME280;13450;49.374;8.584;2023-04-06T07:30:29;100837.53;;;4.08;100.00
25560;BME280;13450;49.374;8.584;2023-04-06T07:32:55;100830.59;;;4.16;100.00
25560;BME280;13450;49.374;8.584;2023-04-06T07:35:22;100830.09;;;4.23;100.00
25560;BME280;13450;49.374;8.584;2023-04-06T07:37:50;100839.88;;;4.32;100.00
25560;BME280;13450;49.374;8.584;2023-04-06T07:40:18;100840.44;;;4.36;100.00
25560;BME280;13450;49.374;8.584;2023-04-06T07:42:44;100833.50;;;4.44;100.00
25560;BME280;13450;49.374;8.584;2023-04-06T07:45:10;100833.81;;;4.51;100.00
25560;BME280;13450;49.374;8.584;2023-04-06T07:47:35;100839.41;;;4.58;100.00
25560;BME280;13450;49.374;8.584;2023-04-06T07:50:01;100835.94;;;4.67;100.00
25560;BME280;13450;49.374;8.584;2023-04-06T07:52:26;100840.97;;;4.80;100.00
25560;BME280;13450;49.374;8.584;2023-04-06T07:54:54;100837.50;;;4.90;99.70
25560;BME280;13450;49.374;8.584;2023-04-06T07:57:19;100832.72;;;4.93;99.32
25560;BME280;13450;49.374;8.584;2023-04-06T07:59:45;100836.25;;;5.04;98.97
25560;BME280;13450;49.374;8.584;2023-04-06T08:02:10;100833.31;;;5.07;98.40
25560;BME280;13450;49.374;8.584;2023-04-06T08:04:36;100834.03;;;5.19;98.62
25560;BME280;13450;49.374;8.584;2023-04-06T08:07:01;100831.78;;;5.24;97.74
25560;BME280;13450;49.374;8.584;2023-04-06T08:09:27;100832.88;;;5.31;97.43
25560;BME280;13450;49.374;8.584;2023-04-06T08:11:52;100835.00;;;5.38;96.96
25560;BME280;13450;49.374;8.584;2023-04-06T08:14:18;100835.09;;;5.46;96.69
25560;BME280;13450;49.374;8.584;2023-04-06T08:16:43;100826.00;;;5.58;95.44
25560;BME280;13450;49.374;8.584;2023-04-06T08:19:08;100823.75;;;5.63;94.20
25560;BME280;13450;49.374;8.584;2023-04-06T08:21:39;100837.81;;;5.84;94.42
25560;BME280;13450;49.374;8.584;2023-04-06T08:24:05;100833.19;;;5.96;93.50
25560;BME280;13450;49.374;8.584;2023-04-06T08:26:31;100837.66;;;6.05;92.82
25560;BME280;13450;49.374;8.584;2023-04-06T08:28:56;100836.47;;;6.18;91.33
25560;BME280;13450;49.374;8.584;2023-04-06T08:31:21;100827.63;;;6.27;90.58
25560;BME280;13450;49.374;8.584;2023-04-06T08:33:46;100832.09;;;6.36;90.07
25560;BME280;13450;49.374;8.584;2023-04-06T08:36:13;100831.88;;;6.48;89.39
25560;BME280;13450;49.374;8.584;2023-04-06T08:38:40;100831.34;;;6.62;86.80
25560;BME280;13450;49.374;8.584;2023-04-06T08:41:10;100833.13;;;6.72;86.31
25560;BME280;13450;49.374;8.584;2023-04-06T08:43:44;100833.44;;;6.87;86.26
25560;BME280;13450;49.374;8.584;2023-04-06T08:46:12;100835.56;;;7.01;84.61
25560;BME280;13450;49.374;8.584;2023-04-06T08:48:38;100827.22;;;7.14;80.61
25560;BME280;13450;49.374;8.584;2023-04-06T08:51:05;100824.31;;;7.26;77.86
25560;BME280;13450;49.374;8.584;2023-04-06T08:53:30;100831.06;;;7.38;75.32
25560;BME280;13450;49.374;8.584;2023-04-06T08:55:58;100822.78;;;7.41;73.71
25560;BME280;13450;49.374;8.584;2023-04-06T08:58:24;100826.53;;;7.57;73.96
25560;BME280;13450;49.374;8.584;2023-04-06T09:00:50;100821.56;;;7.62;71.91
25560;BME280;13450;49.374;8.584;2023-04-06T09:03:17;100822.38;;;7.81;72.62
25560;BME280;13450;49.374;8.584;2023-04-06T09:05:46;100819.94;;;7.96;71.39
25560;BME280;13450;49.374;8.584;2023-04-06T09:08:12;100821.69;;;8.14;70.89
25560;BME280;13450;49.374;8.584;2023-04-06T09:10:40;100824.09;;;8.25;69.33
25560;BME280;13450;49.374;8.584;2023-04-06T09:13:06;100820.13;;;8.29;67.33
25560;BME280;13450;49.374;8.584;2023-04-06T09:15:32;100828.31;;;8.36;66.56
25560;BME280;13450;49.374;8.584;2023-04-06T09:17:58;100817.97;;;8.41;66.14
25560;BME280;13450;49.374;8.584;2023-04-06T09:20:24;100821.91;;;8.55;66.83
25560;BME280;13450;49.374;8.584;2023-04-06T09:22:56;100819.09;;;8.73;65.55
25560;BME280;13450;49.374;8.584;2023-04-06T09:25:23;100817.28;;;8.90;63.66
25560;BME280;13450;49.374;8.584;2023-04-06T09:27:58;100814.13;;;8.95;61.76
25560;BME280;13450;49.374;8.584;2023-04-06T09:30:24;100809.13;;;9.09;61.60
25560;BME280;13450;49.374;8.584;2023-04-06T09:32:56;100813.16;;;9.21;61.84
25560;BME280;13450;49.374;8.584;2023-04-06T09:35:22;100802.63;;;9.28;61.52
25560;BME280;13450;49.374;8.584;2023-04-06T09:37:49;100806.13;;;9.45;60.09
25560;BME280;13450;49.374;8.584;2023-04-06T09:40:15;100809.28;;;9.49;58.19
25560;BME280;13450;49.374;8.584;2023-04-06T09:42:45;100799.91;;;9.70;59.38
25560;BME280;13450;49.374;8.584;2023-04-06T09:45:11;100801.88;;;9.84;55.97
25560;BME280;13450;49.374;8.584;2023-04-06T09:47:37;100798.13;;;10.02;56.24
25560;BME280;13450;49.374;8.584;2023-04-06T09:50:05;100801.66;;;10.02;53.86
25560;BME280;13450;49.374;8.584;2023-04-06T09:52:37;100797.22;;;10.26;54.35
25560;BME280;13450;49.374;8.584;2023-04-06T09:55:04;100795.81;;;10.47;53.28
25560;BME280;13450;49.374;8.584;2023-04-06T09:57:49;100797.84;;;10.68;53.20
25560;BME280;13450;49.374;8.584;2023-04-06T10:00:17;100794.22;;;10.84;51.17
25560;BME280;13450;49.374;8.584;2023-04-06T10:07:47;100799.31;;;11.18;51.12
25560;BME280;13450;49.374;8.584;2023-04-06T10:10:16;100789.00;;;11.30;50.17
25560;BME280;13450;49.374;8.584;2023-04-06T10:12:41;100793.38;;;11.46;49.41
25560;BME280;13450;49.374;8.584;2023-04-06T10:15:08;100789.81;;;11.54;47.81
25560;BME280;13450;49.374;8.584;2023-04-06T10:17:33;100779.75;;;11.71;47.17
25560;BME280;13450;49.374;8.584;2023-04-06T10:20:16;100783.25;;;11.71;45.13
25560;BME280;13450;49.374;8.584;2023-04-06T10:23:09;100786.84;;;11.78;44.84
25560;BME280;13450;49.374;8.584;2023-04-06T10:25:39;100782.88;;;11.89;44.93
25560;BME280;13450;49.374;8.584;2023-04-06T10:28:06;100789.13;;;12.05;44.17
25560;BME280;13450;49.374;8.584;2023-04-06T10:30:32;100782.38;;;12.09;43.00
25560;BME280;13450;49.374;8.584;2023-04-06T10:32:58;100788.50;;;12.40;44.06
25560;BME280;13450;49.374;8.584;2023-04-06T10:35:37;100790.59;;;12.45;42.32
25560;BME280;13450;49.374;8.584;2023-04-06T10:38:04;100784.56;;;12.58;42.35
25560;BME280;13450;49.374;8.584;2023-04-06T10:40:30;100782.84;;;12.93;41.68
25560;BME280;13450;49.374;8.584;2023-04-06T10:43:07;100781.19;;;12.92;41.45
25560;BME280;13450;49.374;8.584;2023-04-06T10:45:33;100777.22;;;13.10;40.98
25560;BME280;13450;49.374;8.584;2023-04-06T10:47:59;100791.22;;;13.56;38.11
25560;BME280;13450;49.374;8.584;2023-04-06T10:50:48;100768.22;;;13.82;36.15
25560;BME280;13450;49.374;8.584;2023-04-06T10:53:32;100779.25;;;14.49;34.93
25560;BME280;13450;49.374;8.584;2023-04-06T10:56:22;100776.22;;;14.80;35.95
25560;BME280;13450;49.374;8.584;2023-04-06T10:59:07;100767.69;;;16.69;32.43
25560;BME280;13450;49.374;8.584;2023-04-06T11:01:51;100770.69;;;18.49;29.80
25560;BME280;13450;49.374;8.584;2023-04-06T11:04:34;100777.94;;;19.34;26.42
25560;BME280;13450;49.374;8.584;2023-04-06T11:07:23;100758.31;;;20.04;26.12
25560;BME280;13450;49.374;8.584;2023-04-06T11:10:08;100757.09;;;20.87;27.78
25560;BME280;13450;49.374;8.584;2023-04-06T11:12:54;100747.94;;;20.93;23.03
25560;BME280;13450;49.374;8.584;2023-04-06T11:15:39;100759.56;;;20.59;23.23
25560;BME280;13450;49.374;8.584;2023-04-06T11:18:23;100748.34;;;20.85;23.26
25560;BME280;13450;49.374;8.584;2023-04-06T11:21:06;100744.66;;;22.15;21.52
25560;BME280;13450;49.374;8.584;2023-04-06T11:23:50;100746.25;;;21.43;22.09
25560;BME280;13450;49.374;8.584;2023-04-06T11:29:30;100737.00;;;21.05;22.15
25560;BME280;13450;49.374;8.584;2023-04-06T11:32:21;100742.00;;;20.96;22.39
25560;BME280;13450;49.374;8.584;2023-04-06T11:35:10;100735.19;;;20.47;22.13
25560;BME280;13450;49.374;8.584;2023-04-06T11:37:54;100728.88;;;20.30;22.23
25560;BME280;13450;49.374;8.584;2023-04-06T11:40:38;100727.81;;;19.37;24.37
25560;BME280;13450;49.374;8.584;2023-04-06T11:43:29;100727.66;;;19.67;24.28
25560;BME280;13450;49.374;8.584;2023-04-06T11:46:19;100726.63;;;20.09;23.84
25560;BME280;13450;49.374;8.584;2023-04-06T11:49:05;100726.03;;;21.39;22.79
25560;BME280;13450;49.374;8.584;2023-04-06T11:51:49;100710.34;;;21.86;22.01
25560;BME280;13450;49.374;8.584;2023-04-06T11:54:15;100720.66;;;23.37;21.13
25560;BME280;13450;49.374;8.584;2023-04-06T11:56:41;100715.72;;;23.34;19.78
25560;BME280;13450;49.374;8.584;2023-04-06T11:59:07;100718.53;;;24.76;18.71
25560;BME280;13450;49.374;8.584;2023-04-06T12:01:32;100708.13;;;24.26;19.52
25560;BME280;13450;49.374;8.584;2023-04-06T12:03:57;100710.75;;;22.55;19.65
25560;BME280;13450;49.374;8.584;2023-04-06T12:06:23;100706.53;;;21.70;20.28
25560;BME280;13450;49.374;8.584;2023-04-06T12:08:48;100698.00;;;22.06;19.98
25560;BME280;13450;49.374;8.584;2023-04-06T12:11:14;100706.13;;;22.28;21.47
25560;BME280;13450;49.374;8.584;2023-04-06T12:13:39;100707.31;;;23.03;19.76
25560;BME280;13450;49.374;8.584;2023-04-06T12:16:05;100703.09;;;23.87;18.58
25560;BME280;13450;49.374;8.584;2023-04-06T12:18:33;100700.72;;;24.11;18.71
25560;BME280;13450;49.374;8.584;2023-04-06T12:20:58;100702.53;;;23.85;18.99
25560;BME280;13450;49.374;8.584;2023-04-06T12:23:23;100694.69;;;25.08;17.61
25560;BME280;13450;49.374;8.584;2023-04-06T12:25:49;100691.69;;;26.66;16.91
25560;BME280;13450;49.374;8.584;2023-04-06T12:28:14;100688.53;;;27.62;16.21
25560;BME280;13450;49.374;8.584;2023-04-06T12:30:40;100685.69;;;26.64;16.00
25560;BME280;13450;49.374;8.584;2023-04-06T12:33:06;100689.50;;;25.88;18.35
25560;BME280;13450;49.374;8.584;2023-04-06T12:35:34;100685.44;;;24.88;16.83
25560;BME280;13450;49.374;8.584;2023-04-06T12:38:00;100684.56;;;24.04;17.88
25560;BME280;13450;49.374;8.584;2023-04-06T12:40:25;100687.09;;;24.48;17.04
25560;BME280;13450;49.374;8.584;2023-04-06T12:42:53;100681.00;;;22.86;18.56
25560;BME280;13450;49.374;8.584;2023-04-06T12:45:18;100677.09;;;23.74;18.47
25560;BME280;13450;49.374;8.584;2023-04-06T12:47:44;100680.53;;;24.33;18.04
25560;BME280;13450;49.374;8.584;2023-04-06T12:50:09;100669.22;;;26.34;15.71
25560;BME280;13450;49.374;8.584;2023-04-06T12:52:35;100675.38;;;26.80;15.96
25560;BME280;13450;49.374;8.584;2023-04-06T12:55:04;100676.75;;;28.52;15.30
25560;BME280;13450;49.374;8.584;2023-04-06T12:57:30;100669.50;;;28.42;14.70
25560;BME280;13450;49.374;8.584;2023-04-06T12:59:58;100668.47;;;29.42;17.04
25560;BME280;13450;49.374;8.584;2023-04-06T13:02:24;100666.84;;;27.36;15.45